Time;durP1;ratioP1;P1;durP2;ratioP2;P2;SDS_P1;SDS_P2;PMS_P1;PMS_P2;Temp;Humidity;BMP_temperature;BMP_pressure;BME280_temperature;BME280_humidity;BME280_pressure;Samples;Min_cycle;Max_cycle;Signal;HPM_P1;HPM_P2
2022/02/20 00:00:27;;;;;;;21.75;9.53;;;;;;;2.41;49.41;96437.27;1700075;84;21007;-83
2022/02/20 00:02:55;;;;;;;13.65;7.03;;;;;;;2.46;49.40;96437.38;1721629;83;21070;-83
2022/02/20 00:05:21;;;;;;;26.55;12.37;;;;;;;2.47;49.49;96437.72;1695867;85;20980;-84
2022/02/20 00:07:47;;;;;;;6.55;3.22;;;;;;;2.46;49.35;96439.47;1720964;83;21025;-84
2022/02/20 00:10:12;;;;;;;6.00;3.33;;;;;;;2.48;49.22;96436.30;1720030;83;21003;-83
2022/02/20 00:12:38;;;;;;;12.88;7.60;;;;;;;2.52;49.08;96431.72;1683135;85;21412;-83
2022/02/20 00:15:05;;;;;;;8.80;5.85;;;;;;;2.57;49.07;96429.09;1668875;85;21035;-83
2022/02/20 00:17:30;;;;;;;12.30;9.43;;;;;;;2.59;49.14;96431.52;1663278;86;21028;-84
2022/02/20 00:19:56;;;;;;;38.00;17.87;;;;;;;2.58;48.94;96429.43;1663209;86;21087;-83
2022/02/20 00:22:22;;;;;;;19.77;8.28;;;;;;;2.59;49.03;96425.11;1663423;86;21019;-84
2022/02/20 00:24:48;;;;;;;7.95;4.53;;;;;;;2.55;49.03;96414.30;1663389;86;21131;-84
2022/02/20 00:27:14;;;;;;;18.82;9.00;;;;;;;2.58;48.80;96414.51;1660807;85;21075;-84
2022/02/20 00:29:39;;;;;;;8.35;4.28;;;;;;;2.60;49.31;96412.63;1673399;85;21379;-84
2022/02/20 00:32:06;;;;;;;10.35;5.28;;;;;;;2.62;48.94;96417.17;1689880;85;21058;-83
2022/02/20 00:34:32;;;;;;;6.30;3.22;;;;;;;2.63;49.06;96409.81;1687051;85;21019;-83
2022/02/20 00:36:57;;;;;;;5.15;3.00;;;;;;;2.63;48.85;96410.63;1686865;85;21418;-84
2022/02/20 00:39:24;;;;;;;4.05;2.70;;;;;;;2.64;48.90;96404.55;1686530;85;21504;-83
2022/02/20 00:41:49;;;;;;;10.30;4.08;;;;;;;2.66;49.02;96407.79;1685155;84;20985;-84
2022/02/20 00:44:15;;;;;;;7.10;3.62;;;;;;;2.66;48.81;96404.41;1686890;85;20967;-84
2022/02/20 00:46:41;;;;;;;9.20;3.35;;;;;;;2.68;48.88;96402.52;1686765;85;21025;-83
2022/02/20 00:49:07;;;;;;;6.97;3.60;;;;;;;2.68;49.41;96406.38;1687019;85;21020;-83
2022/02/20 00:51:35;;;;;;;6.53;3.58;;;;;;;2.66;48.95;96404.41;1687011;85;21022;-83
2022/02/20 00:54:00;;;;;;;8.10;6.50;;;;;;;2.67;49.04;96403.00;1686284;84;21422;-83
2022/02/20 00:56:26;;;;;;;8.05;4.08;;;;;;;2.67;48.97;96395.78;1667138;85;21046;-84
2022/02/20 00:58:52;;;;;;;6.37;3.83;;;;;;;2.66;48.95;96389.83;1686946;85;21127;-84
2022/02/20 01:01:17;;;;;;;13.80;5.90;;;;;;;2.67;49.02;96397.06;1685986;85;21059;-84
2022/02/20 01:03:43;;;;;;;16.02;7.08;;;;;;;2.66;49.01;96389.02;1686529;85;20938;-84
2022/02/20 01:06:09;;;;;;;11.57;5.58;;;;;;;2.63;49.06;96384.97;1687077;84;21370;-84
2022/02/20 01:08:34;;;;;;;8.75;4.62;;;;;;;2.61;49.16;96380.92;1686973;84;21085;-83
2022/02/20 01:11:00;;;;;;;13.55;6.75;;;;;;;2.60;49.25;96379.27;1686897;84;20979;-84
2022/02/20 01:13:26;;;;;;;15.25;7.62;;;;;;;2.59;49.16;96375.09;1686913;85;21366;-83
2022/02/20 01:15:51;;;;;;;7.53;3.15;;;;;;;2.59;49.03;96368.67;1686673;85;20995;-83
2022/02/20 01:18:17;;;;;;;8.33;4.72;;;;;;;2.58;49.17;96354.23;1686613;85;20963;-84
2022/02/20 01:20:43;;;;;;;4.80;2.52;;;;;;;2.57;49.18;96355.17;1685421;85;21378;-83
2022/02/20 01:23:09;;;;;;;6.92;3.47;;;;;;;2.57;49.14;96348.77;1651287;86;21024;-83
2022/02/20 01:25:34;;;;;;;9.20;4.58;;;;;;;2.60;49.13;96351.05;1652413;85;21352;-84
2022/02/20 01:28:00;;;;;;;4.35;2.20;;;;;;;2.59;49.21;96341.27;1654223;86;21495;-84
2022/02/20 01:30:26;;;;;;;4.40;3.12;;;;;;;2.56;49.83;96329.19;1654352;86;21080;-84
2022/02/20 01:32:51;;;;;;;9.08;5.37;;;;;;;2.51;49.16;96332.16;1651142;86;21160;-84
2022/02/20 01:35:17;;;;;;;15.78;7.40;;;;;;;2.54;49.27;96334.45;1648530;87;21511;-83
2022/02/20 01:37:43;;;;;;;18.10;11.55;;;;;;;2.55;48.98;96327.56;1668576;84;21036;-84
2022/02/20 01:40:10;;;;;;;10.72;6.75;;;;;;;2.59;49.41;96328.44;1724814;83;21066;-83
2022/02/20 01:42:36;;;;;;;12.25;6.87;;;;;;;2.59;48.80;96331.01;1706401;84;20976;-83
2022/02/20 01:45:01;;;;;;;8.83;5.80;;;;;;;2.57;48.89;96326.48;1706348;84;20999;-84
2022/02/20 01:47:29;;;;;;;15.83;8.93;;;;;;;2.58;48.59;96319.13;1706491;84;20981;-83
2022/02/20 01:49:55;;;;;;;13.90;8.15;;;;;;;2.60;48.75;96313.42;1706350;84;21111;-83
2022/02/20 01:52:22;;;;;;;21.10;13.00;;;;;;;2.59;48.83;96311.77;1706345;84;21044;-84
2022/02/20 01:54:48;;;;;;;15.20;9.30;;;;;;;2.58;48.94;96304.20;1698659;83;21003;-83
2022/02/20 01:57:14;;;;;;;14.33;9.35;;;;;;;2.51;48.87;96292.88;1706453;84;21689;-83
2022/02/20 01:59:40;;;;;;;12.33;7.70;;;;;;;2.52;48.95;96285.52;1681940;84;20988;-84
2022/02/20 02:02:06;;;;;;;9.95;7.10;;;;;;;2.52;48.83;96290.65;1706268;84;21074;-83
2022/02/20 02:04:31;;;;;;;10.53;7.30;;;;;;;2.56;48.60;96294.56;1706420;84;20984;-83
2022/02/20 02:06:57;;;;;;;10.05;6.35;;;;;;;2.60;48.65;96299.75;1706413;84;21347;-83
2022/02/20 02:09:23;;;;;;;7.62;6.83;;;;;;;2.62;48.79;96294.85;1706343;84;20941;-83
2022/02/20 02:11:48;;;;;;;6.05;4.75;;;;;;;2.60;48.65;96292.05;1706337;84;20949;-84
2022/02/20 02:14:15;;;;;;;5.80;3.60;;;;;;;2.57;48.41;96285.92;1706338;84;21485;-84
2022/02/20 02:16:40;;;;;;;5.72;4.80;;;;;;;2.57;48.53;96288.48;1694058;85;20975;-83
2022/02/20 02:19:06;;;;;;;4.70;3.37;;;;;;;2.56;48.75;96288.14;1706427;84;21028;-83
2022/02/20 02:21:32;;;;;;;7.53;6.15;;;;;;;2.56;48.18;96276.13;1701361;84;21351;-83
2022/02/20 02:23:58;;;;;;;5.90;3.62;;;;;;;2.59;48.08;96270.73;1696511;84;20942;-83
2022/02/20 02:26:23;;;;;;;4.37;2.80;;;;;;;2.58;47.72;96269.58;1695079;84;20983;-83
2022/02/20 02:28:49;;;;;;;4.85;3.00;;;;;;;2.57;48.32;96262.36;1692422;84;21038;-84
2022/02/20 02:31:16;;;;;;;2.95;2.30;;;;;;;2.58;47.97;96251.16;1694528;84;21077;-83
2022/02/20 02:33:42;;;;;;;4.55;2.80;;;;;;;2.60;48.02;96249.73;1680738;84;21472;-83
2022/02/20 02:36:08;;;;;;;4.22;2.55;;;;;;;2.63;47.54;96239.22;1685994;84;21020;-83
2022/02/20 02:38:34;;;;;;;9.35;3.87;;;;;;;2.68;47.36;96240.90;1704374;84;20995;-84
2022/02/20 02:41:06;;;;;;;7.37;3.33;;;;;;;2.70;47.30;96235.97;1703277;84;20983;-83
2022/02/20 02:43:33;;;;;;;8.15;6.10;;;;;;;2.73;47.64;96240.01;1699984;84;20986;-83
2022/02/20 02:45:59;;;;;;;7.55;4.47;;;;;;;2.73;47.67;96234.88;1699889;84;21006;-83
2022/02/20 02:48:25;;;;;;;4.92;3.90;;;;;;;2.72;47.59;96230.69;1699868;84;21063;-83
2022/02/20 02:50:51;;;;;;;6.62;4.47;;;;;;;2.66;47.39;96217.14;1699929;84;21018;-83
2022/02/20 02:53:17;;;;;;;9.65;5.92;;;;;;;2.66;47.45;96218.42;1699666;84;21476;-83
2022/02/20 02:55:47;;;;;;;7.70;4.33;;;;;;;2.65;47.66;96207.35;1699812;84;20987;-83
2022/02/20 02:58:19;;;;;;;3.27;2.87;;;;;;;2.65;47.50;96210.39;1699832;84;21082;-83
2022/02/20 03:00:46;;;;;;;3.77;3.33;;;;;;;2.63;47.44;96206.69;1699656;83;21561;-83
2022/02/20 03:03:12;;;;;;;6.78;3.30;;;;;;;2.63;47.46;96209.25;1699684;84;21031;-83
2022/02/20 03:05:38;;;;;;;5.87;3.98;;;;;;;2.66;47.38;96214.58;1700028;84;20940;-83
2022/02/20 03:08:04;;;;;;;5.42;3.60;;;;;;;2.66;47.54;96208.16;1699904;84;21019;-83
2022/02/20 03:10:30;;;;;;;6.28;3.50;;;;;;;2.65;47.58;96200.94;1681531;84;21409;-83
2022/02/20 03:12:55;;;;;;;8.23;5.00;;;;;;;2.67;47.44;96199.52;1699730;84;20980;-83
2022/02/20 03:15:21;;;;;;;6.83;3.80;;;;;;;2.68;47.53;96199.85;1699743;84;21023;-83
2022/02/20 03:17:47;;;;;;;4.80;3.12;;;;;;;2.72;47.18;96193.49;1699718;84;20964;-83
2022/02/20 03:20:13;;;;;;;4.62;2.08;;;;;;;2.75;47.52;96197.53;1699964;84;21059;-83
2022/02/20 03:22:38;;;;;;;2.90;2.20;;;;;;;2.78;46.88;96190.87;1699921;84;20937;-83
2022/02/20 03:25:05;;;;;;;3.02;2.40;;;;;;;2.82;46.76;96188.36;1699897;84;21279;-83
2022/02/20 03:27:31;;;;;;;5.05;4.50;;;;;;;2.86;46.94;96179.42;1688316;84;21007;-84
2022/02/20 03:29:57;;;;;;;7.03;4.03;;;;;;;2.88;47.07;96173.67;1653356;86;21042;-84
2022/02/20 03:32:23;;;;;;;6.42;3.27;;;;;;;2.90;47.03;96175.15;1670154;85;21134;-83
2022/02/20 03:34:49;;;;;;;7.33;3.70;;;;;;;2.92;46.82;96162.17;1669990;86;21438;-83
2022/02/20 03:37:14;;;;;;;2.55;2.27;;;;;;;2.95;46.38;96159.36;1669992;86;21441;-83
2022/02/20 03:39:40;;;;;;;3.70;2.70;;;;;;;2.97;46.69;96162.11;1669850;86;20980;-83
2022/02/20 03:42:06;;;;;;;3.60;2.62;;;;;;;2.97;46.85;96170.28;1670080;85;21011;-83
2022/02/20 03:44:32;;;;;;;4.58;2.00;;;;;;;2.95;46.53;96158.87;1670035;86;21458;-83
2022/02/20 03:46:57;;;;;;;4.22;2.05;;;;;;;2.96;46.85;96154.08;1669938;85;21092;-83
2022/02/20 03:49:23;;;;;;;3.17;2.22;;;;;;;3.00;46.77;96146.42;1669192;85;21477;-83
2022/02/20 03:51:49;;;;;;;3.17;1.85;;;;;;;3.05;45.98;96143.43;1668577;86;21038;-84
2022/02/20 03:54:14;;;;;;;3.83;2.25;;;;;;;3.10;46.21;96137.89;1668686;86;21006;-83
2022/02/20 03:56:40;;;;;;;6.30;3.77;;;;;;;2.91;46.47;96095.92;1668594;86;20983;-83
2022/02/20 03:59:06;;;;;;;4.22;2.58;;;;;;;3.15;46.47;96134.42;1668677;86;20947;-83
2022/02/20 04:01:32;;;;;;;3.65;1.90;;;;;;;3.19;46.09;96123.72;1669443;86;21386;-83
2022/02/20 04:03:57;;;;;;;4.37;1.98;;;;;;;3.22;45.92;96118.77;1669758;85;21074;-83
2022/02/20 04:06:23;;;;;;;3.20;2.33;;;;;;;3.24;45.85;96115.58;1670159;85;21021;-83
2022/02/20 04:08:49;;;;;;;4.22;1.85;;;;;;;3.26;45.93;96106.00;1670150;86;20984;-83
2022/02/20 04:11:14;;;;;;;5.28;2.50;;;;;;;3.26;45.95;96097.01;1669916;85;21015;-83
2022/02/20 04:13:40;;;;;;;4.87;2.45;;;;;;;3.26;45.58;96090.59;1669997;85;21007;-83
2022/02/20 04:16:06;;;;;;;2.98;2.08;;;;;;;3.27;46.07;96100.72;1670115;85;21378;-83
2022/02/20 04:18:31;;;;;;;4.03;2.00;;;;;;;3.26;45.86;96096.53;1669948;85;21000;-84
2022/02/20 04:20:57;;;;;;;4.30;1.92;;;;;;;3.28;45.62;96095.10;1675869;85;21023;-83
2022/02/20 04:23:24;;;;;;;4.65;2.40;;;;;;;3.27;45.68;96099.43;1670009;85;21371;-83
2022/02/20 04:25:50;;;;;;;4.17;2.27;;;;;;;3.27;45.88;96097.34;1670002;85;21087;-83
2022/02/20 04:28:16;;;;;;;3.83;2.00;;;;;;;3.27;45.11;96081.94;1670071;85;21031;-83
2022/02/20 04:30:42;;;;;;;3.22;1.67;;;;;;;3.28;45.45;96079.70;1669970;85;21006;-83
2022/02/20 04:33:07;;;;;;;4.72;1.82;;;;;;;3.31;45.46;96080.20;1683767;83;21435;-83
2022/02/20 04:35:33;;;;;;;5.15;2.30;;;;;;;3.33;45.69;96064.66;1713288;83;21035;-83
2022/02/20 04:37:59;;;;;;;2.83;2.10;;;;;;;3.35;45.57;96058.09;1713236;82;20961;-83
2022/02/20 04:40:26;;;;;;;3.25;2.27;;;;;;;3.33;45.12;96039.45;1713243;83;21024;-83
2022/02/20 04:42:51;;;;;;;3.55;1.80;;;;;;;3.34;45.67;96062.89;1713297;83;21366;-83
2022/02/20 04:45:18;;;;;;;6.15;2.00;;;;;;;3.34;45.61;96057.76;1699345;83;21330;-84
2022/02/20 04:47:44;;;;;;;6.95;3.00;;;;;;;3.36;45.73;96043.81;1744137;82;21016;-84
2022/02/20 04:50:10;;;;;;;3.98;2.30;;;;;;;3.37;45.63;96039.01;1743928;82;22143;-83
2022/02/20 04:52:35;;;;;;;4.10;2.08;;;;;;;3.37;45.88;96034.34;1732474;82;20955;-83
2022/02/20 04:55:01;;;;;;;2.65;1.75;;;;;;;3.35;46.09;96033.21;1730510;83;21021;-83
2022/02/20 04:57:36;;;;;;;3.58;2.15;;;;;;;3.34;46.11;96017.95;1753243;82;21308;-84
2022/02/20 05:00:07;;;;;;;5.85;1.98;;;;;;;3.36;46.19;96016.05;1744567;82;21001;-83
2022/02/20 05:02:33;;;;;;;8.20;2.00;;;;;;;3.37;46.31;96003.05;1748937;82;21080;-84
2022/02/20 05:04:58;;;;;;;4.05;1.72;;;;;;;3.39;46.51;95998.58;1749082;82;21005;-83
2022/02/20 05:07:24;;;;;;;5.05;1.90;;;;;;;3.41;46.49;96004.37;1749096;82;21009;-84
2022/02/20 05:09:50;;;;;;;3.50;1.85;;;;;;;3.42;46.49;95982.09;1752085;81;21316;-84
2022/02/20 05:12:16;;;;;;;6.58;2.10;;;;;;;3.43;46.50;95976.00;1754160;81;20993;-83
2022/02/20 05:14:41;;;;;;;5.10;3.17;;;;;;;3.45;47.09;95970.23;1754353;81;21025;-83
2022/02/20 05:17:09;;;;;;;4.78;1.92;;;;;;;3.48;46.86;95966.08;1754304;81;21439;-84
2022/02/20 05:19:35;;;;;;;9.13;3.77;;;;;;;3.49;47.41;95965.12;1754377;81;21078;-83
2022/02/20 05:22:01;;;;;;;4.92;2.30;;;;;;;3.53;47.94;95949.73;1754329;81;20982;-83
2022/02/20 05:24:26;;;;;;;8.23;3.67;;;;;;;3.54;48.10;95950.06;1754016;81;21045;-84
2022/02/20 05:26:52;;;;;;;5.05;2.20;;;;;;;3.58;48.12;95937.27;1754303;81;21009;-83
2022/02/20 05:29:18;;;;;;;7.42;4.30;;;;;;;3.56;48.25;95949.44;1688237;85;21031;-83
2022/02/20 05:31:44;;;;;;;5.45;2.33;;;;;;;3.55;48.42;95930.64;1702562;84;21072;-83
2022/02/20 05:34:09;;;;;;;6.25;2.65;;;;;;;3.56;48.72;95944.30;1702497;84;21467;-83
2022/02/20 05:36:35;;;;;;;5.75;4.03;;;;;;;3.55;48.42;95951.20;1718525;82;20998;-83
2022/02/20 05:39:01;;;;;;;4.30;2.30;;;;;;;3.56;48.60;95954.57;1718265;82;20977;-83
2022/02/20 05:41:27;;;;;;;5.03;3.27;;;;;;;3.55;48.44;95939.64;1718334;82;21052;-83
2022/02/20 05:43:52;;;;;;;3.45;2.25;;;;;;;3.54;48.66;95943.64;1718564;82;21446;-83
2022/02/20 05:46:18;;;;;;;3.02;2.02;;;;;;;3.55;48.74;95947.82;1724290;82;21008;-83
2022/02/20 05:48:44;;;;;;;5.55;2.02;;;;;;;3.52;48.54;95934.80;1728985;83;21055;-83
2022/02/20 05:51:09;;;;;;;2.75;1.90;;;;;;;3.53;48.78;95944.59;1728969;83;21421;-84
2022/02/20 05:53:35;;;;;;;5.30;2.15;;;;;;;3.54;48.83;95929.52;1743992;81;21114;-83
2022/02/20 05:56:01;;;;;;;5.60;1.62;;;;;;;3.55;49.02;95935.78;1749414;82;21022;-83
2022/02/20 05:58:26;;;;;;;5.58;2.47;;;;;;;3.56;48.92;95933.54;1741184;82;21371;-83
2022/02/20 06:00:52;;;;;;;4.97;2.02;;;;;;;3.55;49.03;95938.35;1696236;83;21014;-84
2022/02/20 06:03:18;;;;;;;5.33;2.42;;;;;;;3.55;49.05;95947.34;1690229;85;21052;-83
2022/02/20 06:05:43;;;;;;;5.45;2.60;;;;;;;3.56;49.25;95952.00;1667762;84;21378;-83
2022/02/20 06:08:11;;;;;;;4.65;2.15;;;;;;;3.55;49.85;95949.11;1700888;84;21022;-83
2022/02/20 06:10:37;;;;;;;4.65;2.50;;;;;;;3.54;49.42;95958.58;1712363;82;21024;-83
2022/02/20 06:13:03;;;;;;;4.85;2.80;;;;;;;3.55;49.63;95960.66;1741204;82;21319;-84
2022/02/20 06:15:30;;;;;;;4.95;2.00;;;;;;;3.56;49.89;95970.79;1754051;81;22029;-83
2022/02/20 06:17:56;;;;;;;4.37;2.00;;;;;;;3.56;50.13;95966.94;1754106;82;20985;-83
2022/02/20 06:20:22;;;;;;;4.00;2.40;;;;;;;3.56;50.46;95990.05;1724653;82;20961;-83
2022/02/20 06:22:47;;;;;;;6.30;3.08;;;;;;;3.54;50.84;95980.89;1753931;81;21005;-83
2022/02/20 06:25:13;;;;;;;3.87;1.80;;;;;;;3.53;51.23;96008.34;1753647;82;21432;-84
2022/02/20 06:27:39;;;;;;;4.12;2.10;;;;;;;3.50;52.39;96005.27;1753938;82;21046;-84
2022/02/20 06:30:06;;;;;;;4.53;2.10;;;;;;;3.45;53.48;96000.58;1749827;82;21000;-85
2022/02/20 06:32:32;;;;;;;4.10;1.90;;;;;;;3.41;54.45;96018.49;1748815;82;21025;-85
2022/02/20 06:34:59;;;;;;;8.65;2.65;;;;;;;3.33;55.99;96015.05;1742342;82;20974;-84
2022/02/20 06:37:25;;;;;;;4.28;2.58;;;;;;;3.22;56.90;96016.06;1741491;82;21435;-84
2022/02/20 06:39:50;;;;;;;5.00;2.92;;;;;;;3.08;59.18;96020.40;1741434;82;21066;-84
2022/02/20 06:42:18;;;;;;;3.52;2.00;;;;;;;2.92;60.62;96023.59;1741337;82;21018;-84
2022/02/20 06:44:43;;;;;;;3.05;2.60;;;;;;;2.79;61.83;96025.23;1741640;82;21043;-85
2022/02/20 06:47:09;;;;;;;5.20;3.12;;;;;;;2.69;61.74;96023.17;1741492;82;21065;-84
2022/02/20 06:49:35;;;;;;;4.50;2.37;;;;;;;2.59;62.57;96018.55;1741499;82;21050;-84
2022/02/20 06:52:01;;;;;;;6.40;3.35;;;;;;;2.49;63.69;96016.51;1741514;82;21469;-84
2022/02/20 06:54:27;;;;;;;5.28;3.37;;;;;;;2.43;63.49;96020.90;1741401;82;20963;-84
2022/02/20 06:56:56;;;;;;;7.22;3.67;;;;;;;2.37;65.48;96013.30;1741490;82;21017;-84
2022/02/20 06:59:23;;;;;;;5.30;3.22;;;;;;;2.30;65.64;96016.10;1722649;82;20974;-84
2022/02/20 07:01:49;;;;;;;4.17;3.00;;;;;;;2.20;66.45;96018.68;1675064;83;20999;-84
2022/02/20 07:04:15;;;;;;;9.55;3.62;;;;;;;2.11;66.83;96018.22;1723603;83;21406;-84
2022/02/20 07:06:45;;;;;;;6.33;3.52;;;;;;;2.05;67.79;96025.99;1723422;83;20991;-83
2022/02/20 07:09:11;;;;;;;8.78;4.50;;;;;;;1.97;68.90;96014.83;1722423;83;21510;-84
2022/02/20 07:11:41;;;;;;;5.37;2.87;;;;;;;1.90;69.99;96024.80;1723604;83;21079;-84
2022/02/20 07:14:06;;;;;;;4.40;2.33;;;;;;;1.87;69.96;96017.87;1723748;83;21063;-84
2022/02/20 07:16:33;;;;;;;3.22;2.70;;;;;;;1.82;72.32;96031.56;1720159;83;21060;-84
2022/02/20 07:18:59;;;;;;;7.60;3.45;;;;;;;1.77;70.99;96034.04;1695017;84;21026;-85
2022/02/20 07:21:25;;;;;;;5.12;3.20;;;;;;;1.74;72.43;96034.31;1694898;84;21330;-85
2022/02/20 07:23:52;;;;;;;3.37;2.25;;;;;;;1.70;72.49;96040.66;1694697;84;21059;-84
2022/02/20 07:26:18;;;;;;;4.67;2.37;;;;;;;1.65;73.48;96036.42;1694957;85;21389;-84
2022/02/20 07:28:44;;;;;;;5.03;2.58;;;;;;;1.61;74.83;96036.81;1694785;85;21352;-84
2022/02/20 07:31:10;;;;;;;4.17;3.47;;;;;;;1.58;73.80;96038.36;1694872;85;21011;-84
2022/02/20 07:33:36;;;;;;;3.42;2.62;;;;;;;1.56;73.58;96037.22;1706336;82;21014;-84
2022/02/20 07:36:02;;;;;;;2.40;2.17;;;;;;;1.52;76.09;96026.11;1701036;83;21025;-84
2022/02/20 07:38:28;;;;;;;2.90;2.02;;;;;;;1.44;75.03;96033.97;1674605;83;20960;-84
2022/02/20 07:40:54;;;;;;;2.45;1.75;;;;;;;1.41;76.65;96025.28;1668230;84;21350;-84
2022/02/20 07:43:20;;;;;;;3.62;2.30;;;;;;;1.36;77.48;96033.04;1682196;84;20955;-84
2022/02/20 07:45:46;;;;;;;3.80;2.50;;;;;;;1.30;76.72;96025.88;1698843;84;20970;-84
2022/02/20 07:48:12;;;;;;;5.25;2.90;;;;;;;1.30;77.15;96031.83;1699537;84;21037;-84
2022/02/20 07:50:38;;;;;;;3.55;2.47;;;;;;;1.32;77.12;96036.34;1699506;84;21457;-84
2022/02/20 07:53:05;;;;;;;4.58;3.20;;;;;;;1.33;79.60;96019.23;1698499;83;21021;-84
2022/02/20 07:55:32;;;;;;;3.55;2.20;;;;;;;1.33;77.53;96019.23;1699172;84;21029;-84
2022/02/20 07:58:03;;;;;;;4.65;2.62;;;;;;;1.29;78.74;96030.19;1699287;84;21089;-84
2022/02/20 08:00:30;;;;;;;4.22;3.42;;;;;;;1.28;79.20;96017.05;1702065;83;20998;-84
2022/02/20 08:03:00;;;;;;;3.15;2.30;;;;;;;1.28;80.82;96010.65;1691903;83;21030;-85
2022/02/20 08:05:27;;;;;;;2.75;2.40;;;;;;;1.31;80.23;96003.20;1698984;84;21007;-85
2022/02/20 08:07:53;;;;;;;2.27;1.90;;;;;;;1.36;78.57;95993.36;1679239;84;21022;-85
2022/02/20 08:10:18;;;;;;;2.20;2.00;;;;;;;1.44;79.28;96008.84;1698681;83;21003;-85
2022/02/20 08:12:44;;;;;;;4.87;3.90;;;;;;;1.49;81.31;95999.83;1699566;83;20959;-85
2022/02/20 08:15:10;;;;;;;3.55;2.50;;;;;;;1.54;79.60;95991.73;1699459;84;21117;-85
2022/02/20 08:17:45;;;;;;;4.10;2.83;;;;;;;1.61;79.08;96005.60;1699522;84;20939;-86
2022/02/20 08:20:12;;;;;;;3.02;2.55;;;;;;;1.73;79.21;96009.65;1699439;84;20979;-86
2022/02/20 08:22:39;;;;;;;5.40;3.70;;;;;;;1.82;79.07;96001.63;1698105;83;20983;-85
2022/02/20 08:25:05;;;;;;;5.42;3.05;;;;;;;1.89;79.86;96000.13;1699050;84;21401;-85
2022/02/20 08:27:34;;;;;;;8.18;7.35;;;;;;;1.94;80.27;96007.39;1699206;84;20935;-85
2022/02/20 08:30:04;;;;;;;56.68;30.30;;;;;;;1.95;79.90;96009.00;1677735;83;21029;-85
2022/02/20 08:32:30;;;;;;;10.35;5.62;;;;;;;1.97;79.70;96002.02;1693377;83;21384;-86
2022/02/20 08:34:56;;;;;;;13.18;6.58;;;;;;;1.99;80.59;95965.05;1673680;83;21022;-86
2022/02/20 08:37:22;;;;;;;4.90;3.30;;;;;;;2.04;80.16;95994.10;1674852;84;20956;-85
2022/02/20 08:39:47;;;;;;;25.72;11.30;;;;;;;2.10;78.96;95995.62;1670396;84;20952;-85
2022/02/20 08:42:13;;;;;;;9.23;6.10;;;;;;;2.15;79.02;96002.11;1681313;83;20959;-85
2022/02/20 08:44:39;;;;;;;51.10;27.10;;;;;;;2.19;78.82;96010.66;1670267;84;21330;-85
2022/02/20 08:47:05;;;;;;;53.78;28.23;;;;;;;2.26;79.06;96000.64;1689002;85;21018;-85
2022/02/20 08:49:31;;;;;;;45.33;23.22;;;;;;;2.33;79.78;96003.00;1689171;85;21058;-85
2022/02/20 08:51:56;;;;;;;40.40;17.70;;;;;;;2.38;78.99;95983.67;1670042;85;20920;-85
2022/02/20 08:54:22;;;;;;;9.00;4.70;;;;;;;2.44;79.43;96015.66;1687965;84;20990;-85
2022/02/20 08:56:48;;;;;;;89.17;39.25;;;;;;;2.52;78.37;96005.97;1682709;84;21417;-85
2022/02/20 08:59:14;;;;;;;62.17;30.43;;;;;;;2.60;79.15;95994.06;1674339;84;21067;-85
2022/02/20 09:01:39;;;;;;;78.85;34.10;;;;;;;2.66;78.60;95996.53;1701921;83;21301;-85
2022/02/20 09:04:06;;;;;;;56.60;22.25;;;;;;;2.71;79.15;96003.31;1715707;83;21085;-85
2022/02/20 09:06:33;;;;;;;26.25;9.68;;;;;;;2.76;79.12;95999.83;1717181;83;20985;-85
2022/02/20 09:08:59;;;;;;;52.17;17.87;;;;;;;2.81;78.66;96014.34;1717119;83;21010;-84
2022/02/20 09:11:28;;;;;;;82.92;25.15;;;;;;;2.86;79.18;96001.08;1717332;83;21010;-85
2022/02/20 09:13:54;;;;;;;18.12;7.90;;;;;;;2.89;78.00;95990.52;1717585;83;21017;-84
2022/02/20 09:16:19;;;;;;;14.07;5.30;;;;;;;2.92;79.20;95999.21;1717528;83;21403;-84
2022/02/20 09:18:45;;;;;;;41.88;14.93;;;;;;;2.93;78.43;96013.21;1717091;83;21025;-85
2022/02/20 09:21:12;;;;;;;48.70;18.00;;;;;;;3.01;78.29;96003.02;1717211;83;21035;-85
2022/02/20 09:23:38;;;;;;;98.97;38.50;;;;;;;3.09;77.85;96028.43;1717567;83;21017;-85
2022/02/20 09:26:04;;;;;;;93.07;40.45;;;;;;;3.17;77.95;95981.04;1717476;83;20993;-84
2022/02/20 09:28:30;;;;;;;17.62;7.95;;;;;;;3.20;78.05;95986.69;1717551;83;21329;-85
2022/02/20 09:30:56;;;;;;;4.83;3.20;;;;;;;3.21;76.93;96029.37;1717421;83;21057;-84
2022/02/20 09:33:21;;;;;;;10.00;5.00;;;;;;;3.22;76.99;96030.98;1717725;83;20974;-85
2022/02/20 09:35:47;;;;;;;9.70;4.67;;;;;;;3.25;76.67;96033.30;1703203;83;21349;-84
2022/02/20 09:38:13;;;;;;;45.33;18.05;;;;;;;3.30;77.30;96023.39;1733445;82;20985;-84
2022/02/20 09:40:40;;;;;;;23.75;10.38;;;;;;;3.36;77.81;96016.05;1732857;83;21037;-84
2022/02/20 09:43:06;;;;;;;27.50;11.50;;;;;;;3.42;76.39;96022.70;1704423;83;21040;-84
2022/02/20 09:45:31;;;;;;;39.85;14.98;;;;;;;3.51;76.67;96026.14;1733216;83;21052;-84
2022/02/20 09:48:04;;;;;;;26.55;10.80;;;;;;;3.58;76.44;96016.91;1733374;82;21052;-84
2022/02/20 09:50:29;;;;;;;;;;;;;;;3.63;76.08;96013.89;1735889;82;21045;-84
2022/02/20 09:52:55;;;;;;;10.68;4.40;;;;;;;3.64;75.74;96006.03;1733017;83;20140;-84
2022/02/20 09:55:21;;;;;;;6.35;3.58;;;;;;;3.65;75.44;96015.36;1733224;83;21411;-84
2022/02/20 09:57:46;;;;;;;53.15;18.02;;;;;;;3.69;75.62;96024.85;1733387;82;20965;-84
2022/02/20 10:00:13;;;;;;;14.00;4.67;;;;;;;3.74;74.99;96019.62;1733083;83;20996;-84
2022/02/20 10:02:44;;;;;;;43.45;14.63;;;;;;;3.82;75.10;96027.38;1733288;82;21008;-84
2022/02/20 10:05:21;;;;;;;31.25;11.00;;;;;;;3.91;75.35;96029.55;1705273;83;21099;-84
2022/02/20 10:07:47;;;;;;;16.90;7.33;;;;;;;3.96;74.90;96036.33;1731886;82;21080;-84
2022/02/20 10:10:20;;;;;;;18.73;8.28;;;;;;;4.00;74.84;96036.83;1733191;82;21097;-84
2022/02/20 10:12:46;;;;;;;6.12;3.67;;;;;;;3.95;74.39;96011.58;1733211;83;20988;-84
2022/02/20 10:15:35;;;;;;;26.12;10.75;;;;;;;4.05;74.06;96048.75;1733125;82;21032;-84
2022/02/20 10:18:19;;;;;;;7.83;3.62;;;;;;;4.09;74.19;96048.33;1733529;83;21068;-84
2022/02/20 10:20:47;;;;;;;8.05;3.42;;;;;;;4.15;73.85;96019.91;1733095;83;21013;-83
2022/02/20 10:23:14;;;;;;;12.82;6.05;;;;;;;4.16;73.67;96035.19;1704377;83;21028;-83
2022/02/20 10:25:44;;;;;;;12.47;5.67;;;;;;;4.20;73.69;96036.97;1733231;82;21012;-84
2022/02/20 10:28:10;;;;;;;14.28;5.55;;;;;;;4.22;73.98;96037.14;1732925;83;21035;-84
2022/02/20 10:30:37;;;;;;;5.95;3.00;;;;;;;4.30;73.74;96045.41;1732336;81;21048;-84
2022/02/20 10:33:15;;;;;;;30.37;10.72;;;;;;;4.39;73.87;96047.53;1732762;83;20959;-84
2022/02/20 10:35:43;;;;;;;12.50;5.97;;;;;;;4.46;73.38;96040.84;1729120;83;21086;-84
2022/02/20 10:38:22;;;;;;;19.32;8.65;;;;;;;4.54;73.08;96033.16;1728116;83;21322;-85
2022/02/20 10:40:53;;;;;;;23.75;9.38;;;;;;;4.59;72.69;96041.73;1727807;83;21090;-84
2022/02/20 10:43:32;;;;;;;7.65;4.53;;;;;;;4.60;72.25;96049.30;1728039;83;21006;-84
2022/02/20 10:46:10;;;;;;;7.75;3.55;;;;;;;4.61;72.28;96060.39;1728065;83;21470;-84
2022/02/20 10:48:42;;;;;;;16.17;8.50;;;;;;;4.64;72.20;96057.03;1728120;83;21011;-85
2022/02/20 10:51:08;;;;;;;5.30;2.50;;;;;;;4.71;72.14;96054.64;1727645;83;21073;-84
2022/02/20 10:53:34;;;;;;;4.30;2.90;;;;;;;4.74;72.23;96074.47;1728014;83;21067;-84
2022/02/20 10:56:00;;;;;;;23.30;11.50;;;;;;;4.75;72.02;96055.48;1727955;83;21026;-85
2022/02/20 10:58:31;;;;;;;25.27;13.98;;;;;;;4.76;72.57;96055.81;1728063;83;20929;-84
2022/02/20 11:00:59;;;;;;;5.55;3.83;;;;;;;4.76;72.29;96055.81;1727956;83;21465;-84
2022/02/20 11:03:30;;;;;;;4.70;3.00;;;;;;;4.76;71.83;96050.66;1697494;83;20983;-85
2022/02/20 11:05:58;;;;;;;8.33;4.75;;;;;;;4.78;72.07;96059.03;1727987;83;21121;-84
2022/02/20 11:08:26;;;;;;;8.33;4.78;;;;;;;4.87;71.99;96047.47;1728107;83;21072;-85
2022/02/20 11:10:52;;;;;;;6.92;3.85;;;;;;;4.90;71.85;96056.20;1728003;82;21050;-85
2022/02/20 11:13:19;;;;;;;6.65;3.25;;;;;;;4.97;71.41;96054.61;1728088;83;20994;-85
2022/02/20 11:15:47;;;;;;;4.42;3.20;;;;;;;5.06;72.27;96047.25;1727921;83;21007;-85
2022/02/20 11:18:16;;;;;;;6.45;3.35;;;;;;;5.16;72.30;96054.35;1728040;82;21047;-85
2022/02/20 11:20:51;;;;;;;6.22;3.17;;;;;;;5.28;71.46;96042.80;1727511;83;20991;-85
2022/02/20 11:23:26;;;;;;;5.40;2.58;;;;;;;5.41;71.27;96048.32;1728162;83;21090;-84
2022/02/20 11:25:55;;;;;;;7.12;4.03;;;;;;;5.49;71.13;96053.16;1699005;83;21000;-84
2022/02/20 11:28:21;;;;;;;7.45;5.05;;;;;;;5.52;70.32;96049.77;1727901;83;21500;-84
2022/02/20 11:30:48;;;;;;;10.55;6.03;;;;;;;5.55;70.16;96044.81;1697549;83;21945;-85
2022/02/20 11:33:15;;;;;;;10.60;5.95;;;;;;;5.58;70.26;96040.63;1697751;83;21079;-85
2022/02/20 11:35:45;;;;;;;7.22;4.78;;;;;;;5.64;69.83;96042.55;1727613;83;21036;-85